Terminal Aerodrome Forecast
Issued by NWS

Home | Current Version | Previous Version | Text Only | Print | Product List | Glossary Off
Versions: 1 2 3 4 5 6 7 8 9 10 11 12 13 14 15 16 17 18 19 20 21 22 23 24 25

000
FTUS43 KGRB 262100 AAB
TAFATW
TAF AMD
KATW 262100Z 2621/2718 27010G18KT P6SM SCT040
     FM270600 15004KT 4SM BR SCT008 BKN250
      TEMPO 2708/2712 2SM BR BKN005
     FM271500 15008KT 5SM -SHRA BR BKN025 OVC060=

USA.gov is the U.S. government's official web portal to all federal, state and local government web resources and services.